sensor_id;sensor_type;location;lat;lon;timestamp;P1;durP1;ratioP1;P2;durP2;ratioP2
28724;SDS011;43472;48.980;9.646;2023-03-12T00:02:02;6.38;;;3.70;;
28724;SDS011;43472;48.980;9.646;2023-03-12T00:07:04;13.75;;;4.18;;
28724;SDS011;43472;48.980;9.646;2023-03-12T00:12:07;8.15;;;3.05;;
28724;SDS011;43472;48.980;9.646;2023-03-12T00:17:09;3.53;;;2.45;;
28724;SDS011;43472;48.980;9.646;2023-03-12T00:22:12;6.97;;;3.35;;
28724;SDS011;43472;48.980;9.646;2023-03-12T00:27:16;5.95;;;2.58;;
28724;SDS011;43472;48.980;9.646;2023-03-12T00:32:19;7.18;;;2.95;;
28724;SDS011;43472;48.980;9.646;2023-03-12T00:37:21;3.85;;;2.17;;
28724;SDS011;43472;48.980;9.646;2023-03-12T00:42:23;5.88;;;2.67;;
28724;SDS011;43472;48.980;9.646;2023-03-12T00:47:24;6.95;;;2.67;;
28724;SDS011;43472;48.980;9.646;2023-03-12T00:52:26;9.75;;;2.75;;
28724;SDS011;43472;48.980;9.646;2023-03-12T00:57:28;8.32;;;3.15;;
28724;SDS011;43472;48.980;9.646;2023-03-12T01:02:30;3.28;;;2.42;;
28724;SDS011;43472;48.980;9.646;2023-03-12T01:07:34;4.75;;;2.40;;
28724;SDS011;43472;48.980;9.646;2023-03-12T01:12:36;5.03;;;2.90;;
28724;SDS011;43472;48.980;9.646;2023-03-12T01:17:38;5.65;;;2.83;;
28724;SDS011;43472;48.980;9.646;2023-03-12T01:27:48;8.35;;;4.18;;
28724;SDS011;43472;48.980;9.646;2023-03-12T01:32:50;6.45;;;3.95;;
28724;SDS011;43472;48.980;9.646;2023-03-12T01:37:52;17.58;;;9.20;;
28724;SDS011;43472;48.980;9.646;2023-03-12T01:42:56;8.57;;;4.60;;
28724;SDS011;43472;48.980;9.646;2023-03-12T01:47:59;7.78;;;4.63;;
28724;SDS011;43472;48.980;9.646;2023-03-12T01:53:01;7.47;;;4.63;;
28724;SDS011;43472;48.980;9.646;2023-03-12T01:58:03;8.70;;;4.38;;
28724;SDS011;43472;48.980;9.646;2023-03-12T02:03:06;8.63;;;4.07;;
28724;SDS011;43472;48.980;9.646;2023-03-12T02:08:12;13.35;;;4.43;;
28724;SDS011;43472;48.980;9.646;2023-03-12T02:13:16;11.82;;;4.70;;
28724;SDS011;43472;48.980;9.646;2023-03-12T02:18:19;8.55;;;4.65;;
28724;SDS011;43472;48.980;9.646;2023-03-12T02:23:29;7.75;;;4.70;;
28724;SDS011;43472;48.980;9.646;2023-03-12T02:28:35;9.73;;;4.32;;
28724;SDS011;43472;48.980;9.646;2023-03-12T02:33:43;7.80;;;4.13;;
28724;SDS011;43472;48.980;9.646;2023-03-12T02:38:46;12.63;;;4.80;;
28724;SDS011;43472;48.980;9.646;2023-03-12T02:50:12;9.80;;;3.97;;
28724;SDS011;43472;48.980;9.646;2023-03-12T02:55:13;9.60;;;4.45;;
28724;SDS011;43472;48.980;9.646;2023-03-12T03:00:16;9.95;;;3.88;;
28724;SDS011;43472;48.980;9.646;2023-03-12T03:05:18;6.28;;;3.20;;
28724;SDS011;43472;48.980;9.646;2023-03-12T03:10:21;8.93;;;3.85;;
28724;SDS011;43472;48.980;9.646;2023-03-12T03:15:23;9.18;;;3.90;;
28724;SDS011;43472;48.980;9.646;2023-03-12T03:20:25;10.85;;;5.10;;
28724;SDS011;43472;48.980;9.646;2023-03-12T03:25:27;9.02;;;4.53;;
28724;SDS011;43472;48.980;9.646;2023-03-12T03:30:29;6.20;;;3.42;;
28724;SDS011;43472;48.980;9.646;2023-03-12T03:35:32;12.68;;;3.58;;
28724;SDS011;43472;48.980;9.646;2023-03-12T03:40:34;7.95;;;4.28;;
28724;SDS011;43472;48.980;9.646;2023-03-12T03:45:37;7.22;;;3.10;;
28724;SDS011;43472;48.980;9.646;2023-03-12T03:50:39;7.28;;;3.58;;
28724;SDS011;43472;48.980;9.646;2023-03-12T03:55:41;8.38;;;3.90;;
28724;SDS011;43472;48.980;9.646;2023-03-12T04:00:44;7.63;;;3.72;;
28724;SDS011;43472;48.980;9.646;2023-03-12T04:05:52;12.95;;;4.63;;
28724;SDS011;43472;48.980;9.646;2023-03-12T04:10:58;9.10;;;3.97;;
28724;SDS011;43472;48.980;9.646;2023-03-12T04:16:07;5.93;;;3.63;;
28724;SDS011;43472;48.980;9.646;2023-03-12T04:21:10;6.78;;;3.92;;
28724;SDS011;43472;48.980;9.646;2023-03-12T04:26:13;8.00;;;3.90;;
28724;SDS011;43472;48.980;9.646;2023-03-12T04:31:15;7.18;;;4.25;;
28724;SDS011;43472;48.980;9.646;2023-03-12T04:36:17;5.63;;;3.40;;
28724;SDS011;43472;48.980;9.646;2023-03-12T04:41:19;9.48;;;3.78;;
28724;SDS011;43472;48.980;9.646;2023-03-12T04:46:21;5.68;;;3.15;;
28724;SDS011;43472;48.980;9.646;2023-03-12T04:51:23;6.93;;;4.40;;
28724;SDS011;43472;48.980;9.646;2023-03-12T04:56:25;6.80;;;3.70;;
28724;SDS011;43472;48.980;9.646;2023-03-12T05:01:28;9.20;;;3.90;;
28724;SDS011;43472;48.980;9.646;2023-03-12T05:06:33;10.77;;;4.30;;
28724;SDS011;43472;48.980;9.646;2023-03-12T05:11:36;10.77;;;3.60;;
28724;SDS011;43472;48.980;9.646;2023-03-12T05:16:40;7.53;;;4.57;;
28724;SDS011;43472;48.980;9.646;2023-03-12T05:21:42;8.80;;;4.85;;
28724;SDS011;43472;48.980;9.646;2023-03-12T05:26:44;10.98;;;5.35;;
28724;SDS011;43472;48.980;9.646;2023-03-12T05:31:46;8.50;;;3.97;;
28724;SDS011;43472;48.980;9.646;2023-03-12T05:36:47;11.75;;;4.63;;
28724;SDS011;43472;48.980;9.646;2023-03-12T05:41:49;8.40;;;4.88;;
28724;SDS011;43472;48.980;9.646;2023-03-12T05:46:54;10.77;;;4.40;;
28724;SDS011;43472;48.980;9.646;2023-03-12T05:51:59;11.85;;;5.30;;
28724;SDS011;43472;48.980;9.646;2023-03-12T05:57:01;9.15;;;5.00;;
28724;SDS011;43472;48.980;9.646;2023-03-12T06:02:03;8.93;;;4.80;;
28724;SDS011;43472;48.980;9.646;2023-03-12T06:07:06;11.75;;;5.15;;
28724;SDS011;43472;48.980;9.646;2023-03-12T06:12:09;15.65;;;5.63;;
28724;SDS011;43472;48.980;9.646;2023-03-12T06:17:11;9.80;;;5.13;;
28724;SDS011;43472;48.980;9.646;2023-03-12T06:22:12;13.93;;;7.13;;
28724;SDS011;43472;48.980;9.646;2023-03-12T06:27:14;8.48;;;5.45;;
28724;SDS011;43472;48.980;9.646;2023-03-12T06:32:17;11.32;;;5.95;;
28724;SDS011;43472;48.980;9.646;2023-03-12T06:37:19;14.00;;;5.78;;
28724;SDS011;43472;48.980;9.646;2023-03-12T06:42:21;12.98;;;5.80;;
28724;SDS011;43472;48.980;9.646;2023-03-12T06:47:23;14.60;;;7.13;;
28724;SDS011;43472;48.980;9.646;2023-03-12T06:52:25;15.60;;;6.55;;
28724;SDS011;43472;48.980;9.646;2023-03-12T06:57:27;12.13;;;6.10;;
28724;SDS011;43472;48.980;9.646;2023-03-12T07:02:29;14.07;;;6.68;;
28724;SDS011;43472;48.980;9.646;2023-03-12T07:07:31;28.77;;;12.75;;
28724;SDS011;43472;48.980;9.646;2023-03-12T07:12:33;27.02;;;12.40;;
28724;SDS011;43472;48.980;9.646;2023-03-12T07:17:35;21.30;;;10.95;;
28724;SDS011;43472;48.980;9.646;2023-03-12T07:22:37;24.15;;;11.32;;
28724;SDS011;43472;48.980;9.646;2023-03-12T07:27:39;22.90;;;11.25;;
28724;SDS011;43472;48.980;9.646;2023-03-12T07:32:41;24.27;;;11.82;;
28724;SDS011;43472;48.980;9.646;2023-03-12T07:37:43;17.55;;;10.68;;
28724;SDS011;43472;48.980;9.646;2023-03-12T07:42:45;11.27;;;6.55;;
28724;SDS011;43472;48.980;9.646;2023-03-12T07:47:47;15.20;;;8.25;;
28724;SDS011;43472;48.980;9.646;2023-03-12T07:52:49;16.13;;;8.68;;
28724;SDS011;43472;48.980;9.646;2023-03-12T07:57:51;13.82;;;6.90;;
28724;SDS011;43472;48.980;9.646;2023-03-12T08:02:56;20.27;;;9.48;;
28724;SDS011;43472;48.980;9.646;2023-03-12T08:07:59;15.25;;;9.23;;
28724;SDS011;43472;48.980;9.646;2023-03-12T08:13:01;20.75;;;10.15;;
28724;SDS011;43472;48.980;9.646;2023-03-12T08:18:03;23.45;;;11.05;;
28724;SDS011;43472;48.980;9.646;2023-03-12T08:23:04;15.82;;;8.85;;
28724;SDS011;43472;48.980;9.646;2023-03-12T08:28:07;22.63;;;12.23;;
28724;SDS011;43472;48.980;9.646;2023-03-12T08:33:09;23.38;;;11.60;;
28724;SDS011;43472;48.980;9.646;2023-03-12T08:38:11;20.77;;;10.10;;
28724;SDS011;43472;48.980;9.646;2023-03-12T08:43:13;15.55;;;8.13;;
28724;SDS011;43472;48.980;9.646;2023-03-12T08:48:15;4.93;;;3.15;;
28724;SDS011;43472;48.980;9.646;2023-03-12T08:53:17;12.55;;;4.85;;
28724;SDS011;43472;48.980;9.646;2023-03-12T08:58:20;12.15;;;5.13;;
28724;SDS011;43472;48.980;9.646;2023-03-12T09:03:24;18.52;;;11.05;;
28724;SDS011;43472;48.980;9.646;2023-03-12T09:08:26;21.85;;;11.32;;
28724;SDS011;43472;48.980;9.646;2023-03-12T09:13:29;15.23;;;10.10;;
28724;SDS011;43472;48.980;9.646;2023-03-12T09:18:50;18.45;;;10.07;;
28724;SDS011;43472;48.980;9.646;2023-03-12T09:23:53;8.45;;;5.53;;
28724;SDS011;43472;48.980;9.646;2023-03-12T09:28:55;8.95;;;3.92;;
28724;SDS011;43472;48.980;9.646;2023-03-12T09:33:58;12.73;;;6.35;;
28724;SDS011;43472;48.980;9.646;2023-03-12T09:38:59;18.98;;;7.70;;
28724;SDS011;43472;48.980;9.646;2023-03-12T09:54:41;12.00;;;5.13;;
28724;SDS011;43472;48.980;9.646;2023-03-12T09:59:59;10.95;;;6.82;;
28724;SDS011;43472;48.980;9.646;2023-03-12T10:05:05;5.80;;;3.58;;
28724;SDS011;43472;48.980;9.646;2023-03-12T10:10:26;10.98;;;4.50;;
28724;SDS011;43472;48.980;9.646;2023-03-12T10:26:50;12.88;;;4.28;;
28724;SDS011;43472;48.980;9.646;2023-03-12T10:37:13;10.98;;;6.30;;
28724;SDS011;43472;48.980;9.646;2023-03-12T10:42:24;8.93;;;5.88;;
28724;SDS011;43472;48.980;9.646;2023-03-12T10:47:35;6.75;;;4.55;;
28724;SDS011;43472;48.980;9.646;2023-03-12T10:52:39;6.90;;;4.63;;
28724;SDS011;43472;48.980;9.646;2023-03-12T10:57:41;6.90;;;4.40;;
28724;SDS011;43472;48.980;9.646;2023-03-12T11:02:44;10.15;;;6.90;;
28724;SDS011;43472;48.980;9.646;2023-03-12T11:07:47;10.35;;;6.07;;
28724;SDS011;43472;48.980;9.646;2023-03-12T11:12:56;6.78;;;4.50;;
28724;SDS011;43472;48.980;9.646;2023-03-12T11:18:20;7.97;;;6.00;;
28724;SDS011;43472;48.980;9.646;2023-03-12T11:23:27;10.35;;;6.20;;
28724;SDS011;43472;48.980;9.646;2023-03-12T11:28:38;9.95;;;6.43;;
28724;SDS011;43472;48.980;9.646;2023-03-12T11:33:43;11.88;;;8.48;;
28724;SDS011;43472;48.980;9.646;2023-03-12T11:38:57;6.00;;;4.80;;
28724;SDS011;43472;48.980;9.646;2023-03-12T11:49:26;10.27;;;4.43;;
28724;SDS011;43472;48.980;9.646;2023-03-12T12:00:15;5.40;;;3.67;;
28724;SDS011;43472;48.980;9.646;2023-03-12T12:15:54;10.15;;;6.45;;
28724;SDS011;43472;48.980;9.646;2023-03-12T12:38:09;6.28;;;4.35;;
28724;SDS011;43472;48.980;9.646;2023-03-12T12:48:37;14.15;;;8.25;;
28724;SDS011;43472;48.980;9.646;2023-03-12T13:04:22;18.55;;;8.50;;
28724;SDS011;43472;48.980;9.646;2023-03-12T13:09:41;12.50;;;6.30;;
28724;SDS011;43472;48.980;9.646;2023-03-12T13:14:58;5.57;;;4.10;;
28724;SDS011;43472;48.980;9.646;2023-03-12T13:30:48;8.25;;;4.15;;
28724;SDS011;43472;48.980;9.646;2023-03-12T13:41:31;10.15;;;4.22;;
28724;SDS011;43472;48.980;9.646;2023-03-12T13:46:38;8.75;;;3.50;;
28724;SDS011;43472;48.980;9.646;2023-03-12T13:51:46;9.90;;;3.97;;
28724;SDS011;43472;48.980;9.646;2023-03-12T13:57:02;23.05;;;12.30;;
28724;SDS011;43472;48.980;9.646;2023-03-12T14:02:16;7.68;;;3.78;;
28724;SDS011;43472;48.980;9.646;2023-03-12T14:12:45;5.57;;;2.97;;
28724;SDS011;43472;48.980;9.646;2023-03-12T14:17:57;7.63;;;2.80;;
28724;SDS011;43472;48.980;9.646;2023-03-12T14:23:03;8.27;;;2.55;;
28724;SDS011;43472;48.980;9.646;2023-03-12T14:28:12;9.05;;;4.20;;
28724;SDS011;43472;48.980;9.646;2023-03-12T14:33:23;5.43;;;2.53;;
28724;SDS011;43472;48.980;9.646;2023-03-12T14:38:35;10.15;;;3.45;;
28724;SDS011;43472;48.980;9.646;2023-03-12T14:43:41;7.22;;;2.63;;
28724;SDS011;43472;48.980;9.646;2023-03-12T14:48:46;6.68;;;2.20;;
28724;SDS011;43472;48.980;9.646;2023-03-12T14:53:50;9.02;;;2.30;;
28724;SDS011;43472;48.980;9.646;2023-03-12T14:58:53;19.00;;;6.25;;
28724;SDS011;43472;48.980;9.646;2023-03-12T15:03:59;12.70;;;3.50;;
28724;SDS011;43472;48.980;9.646;2023-03-12T15:09:05;7.40;;;2.63;;
28724;SDS011;43472;48.980;9.646;2023-03-12T15:14:10;11.18;;;2.55;;
28724;SDS011;43472;48.980;9.646;2023-03-12T15:19:16;9.90;;;2.80;;
28724;SDS011;43472;48.980;9.646;2023-03-12T15:24:22;7.32;;;2.20;;
28724;SDS011;43472;48.980;9.646;2023-03-12T15:29:26;9.60;;;2.30;;
28724;SDS011;43472;48.980;9.646;2023-03-12T15:34:31;8.73;;;2.85;;
28724;SDS011;43472;48.980;9.646;2023-03-12T15:39:35;10.75;;;2.42;;
28724;SDS011;43472;48.980;9.646;2023-03-12T15:44:48;16.98;;;2.78;;
28724;SDS011;43472;48.980;9.646;2023-03-12T15:49:55;18.25;;;5.07;;
28724;SDS011;43472;48.980;9.646;2023-03-12T16:05:15;4.73;;;1.83;;
28724;SDS011;43472;48.980;9.646;2023-03-12T16:10:21;6.28;;;1.98;;
28724;SDS011;43472;48.980;9.646;2023-03-12T16:15:36;7.40;;;2.30;;
28724;SDS011;43472;48.980;9.646;2023-03-12T16:20:39;8.20;;;2.40;;
28724;SDS011;43472;48.980;9.646;2023-03-12T16:25:43;8.68;;;3.03;;
28724;SDS011;43472;48.980;9.646;2023-03-12T16:30:47;22.80;;;7.40;;
28724;SDS011;43472;48.980;9.646;2023-03-12T16:35:50;21.38;;;6.63;;
28724;SDS011;43472;48.980;9.646;2023-03-12T16:40:52;34.53;;;13.38;;
28724;SDS011;43472;48.980;9.646;2023-03-12T16:45:54;15.48;;;5.18;;
28724;SDS011;43472;48.980;9.646;2023-03-12T16:50:58;10.80;;;2.33;;
28724;SDS011;43472;48.980;9.646;2023-03-12T16:56:00;26.50;;;8.35;;
28724;SDS011;43472;48.980;9.646;2023-03-12T17:01:03;31.63;;;10.95;;
28724;SDS011;43472;48.980;9.646;2023-03-12T17:06:05;13.50;;;6.25;;
28724;SDS011;43472;48.980;9.646;2023-03-12T17:11:12;15.70;;;6.45;;
28724;SDS011;43472;48.980;9.646;2023-03-12T17:16:22;13.30;;;4.85;;
28724;SDS011;43472;48.980;9.646;2023-03-12T17:21:24;17.20;;;7.53;;
28724;SDS011;43472;48.980;9.646;2023-03-12T17:26:26;26.13;;;10.15;;
28724;SDS011;43472;48.980;9.646;2023-03-12T17:31:28;10.93;;;4.10;;
28724;SDS011;43472;48.980;9.646;2023-03-12T17:36:30;8.73;;;3.53;;
28724;SDS011;43472;48.980;9.646;2023-03-12T17:41:32;9.68;;;4.18;;
28724;SDS011;43472;48.980;9.646;2023-03-12T17:46:34;8.40;;;4.18;;
28724;SDS011;43472;48.980;9.646;2023-03-12T17:51:47;16.83;;;7.18;;
28724;SDS011;43472;48.980;9.646;2023-03-12T17:56:48;5.35;;;2.10;;
28724;SDS011;43472;48.980;9.646;2023-03-12T18:01:50;10.32;;;3.65;;
28724;SDS011;43472;48.980;9.646;2023-03-12T18:06:52;10.45;;;3.10;;
28724;SDS011;43472;48.980;9.646;2023-03-12T18:11:54;11.57;;;2.53;;
28724;SDS011;43472;48.980;9.646;2023-03-12T18:16:56;11.20;;;1.98;;
28724;SDS011;43472;48.980;9.646;2023-03-12T18:21:59;6.70;;;2.05;;
28724;SDS011;43472;48.980;9.646;2023-03-12T18:27:01;7.97;;;2.22;;
28724;SDS011;43472;48.980;9.646;2023-03-12T18:32:03;8.30;;;1.95;;
28724;SDS011;43472;48.980;9.646;2023-03-12T18:37:05;13.02;;;3.63;;
28724;SDS011;43472;48.980;9.646;2023-03-12T18:42:07;16.35;;;2.30;;
28724;SDS011;43472;48.980;9.646;2023-03-12T18:47:08;11.38;;;2.22;;
28724;SDS011;43472;48.980;9.646;2023-03-12T18:52:10;15.05;;;3.03;;
28724;SDS011;43472;48.980;9.646;2023-03-12T18:57:12;12.90;;;4.63;;
28724;SDS011;43472;48.980;9.646;2023-03-12T19:02:14;14.70;;;4.55;;
28724;SDS011;43472;48.980;9.646;2023-03-12T19:07:16;30.80;;;13.60;;
28724;SDS011;43472;48.980;9.646;2023-03-12T19:12:19;16.92;;;5.72;;
28724;SDS011;43472;48.980;9.646;2023-03-12T19:17:21;13.45;;;3.63;;
28724;SDS011;43472;48.980;9.646;2023-03-12T19:22:24;17.35;;;3.40;;
28724;SDS011;43472;48.980;9.646;2023-03-12T19:27:25;17.45;;;5.22;;
28724;SDS011;43472;48.980;9.646;2023-03-12T19:32:29;13.80;;;4.22;;
28724;SDS011;43472;48.980;9.646;2023-03-12T19:37:43;10.63;;;3.78;;
28724;SDS011;43472;48.980;9.646;2023-03-12T19:42:45;19.50;;;6.53;;
28724;SDS011;43472;48.980;9.646;2023-03-12T19:47:47;8.85;;;2.85;;
28724;SDS011;43472;48.980;9.646;2023-03-12T19:52:50;8.13;;;3.47;;
28724;SDS011;43472;48.980;9.646;2023-03-12T19:57:52;12.75;;;2.72;;
28724;SDS011;43472;48.980;9.646;2023-03-12T20:02:54;11.90;;;2.63;;
28724;SDS011;43472;48.980;9.646;2023-03-12T20:07:58;12.70;;;3.60;;
28724;SDS011;43472;48.980;9.646;2023-03-12T20:13:00;10.40;;;2.88;;
28724;SDS011;43472;48.980;9.646;2023-03-12T20:18:02;9.23;;;2.90;;
28724;SDS011;43472;48.980;9.646;2023-03-12T20:23:04;25.45;;;7.70;;
28724;SDS011;43472;48.980;9.646;2023-03-12T20:28:07;25.17;;;9.32;;
28724;SDS011;43472;48.980;9.646;2023-03-12T20:33:10;11.52;;;3.67;;
28724;SDS011;43472;48.980;9.646;2023-03-12T20:38:12;9.93;;;2.28;;
28724;SDS011;43472;48.980;9.646;2023-03-12T20:43:14;8.38;;;2.10;;
28724;SDS011;43472;48.980;9.646;2023-03-12T20:48:16;13.65;;;2.17;;
28724;SDS011;43472;48.980;9.646;2023-03-12T20:53:18;6.00;;;2.55;;
28724;SDS011;43472;48.980;9.646;2023-03-12T20:58:20;11.48;;;2.22;;
28724;SDS011;43472;48.980;9.646;2023-03-12T21:03:24;7.90;;;2.42;;
28724;SDS011;43472;48.980;9.646;2023-03-12T21:08:26;24.42;;;7.97;;
28724;SDS011;43472;48.980;9.646;2023-03-12T21:13:29;17.75;;;6.55;;
28724;SDS011;43472;48.980;9.646;2023-03-12T21:18:31;10.15;;;2.75;;
28724;SDS011;43472;48.980;9.646;2023-03-12T21:23:33;12.55;;;2.67;;
28724;SDS011;43472;48.980;9.646;2023-03-12T21:28:35;13.20;;;3.05;;
28724;SDS011;43472;48.980;9.646;2023-03-12T21:33:37;11.52;;;3.22;;
28724;SDS011;43472;48.980;9.646;2023-03-12T21:38:39;15.18;;;3.30;;
28724;SDS011;43472;48.980;9.646;2023-03-12T21:43:43;8.18;;;2.33;;
28724;SDS011;43472;48.980;9.646;2023-03-12T21:48:46;8.07;;;2.50;;
28724;SDS011;43472;48.980;9.646;2023-03-12T21:53:55;8.60;;;2.88;;
28724;SDS011;43472;48.980;9.646;2023-03-12T21:58:59;8.43;;;1.92;;
28724;SDS011;43472;48.980;9.646;2023-03-12T22:04:01;12.50;;;3.20;;
28724;SDS011;43472;48.980;9.646;2023-03-12T22:09:03;15.07;;;3.60;;
28724;SDS011;43472;48.980;9.646;2023-03-12T22:14:05;10.77;;;2.63;;
28724;SDS011;43472;48.980;9.646;2023-03-12T22:19:07;10.00;;;2.53;;
28724;SDS011;43472;48.980;9.646;2023-03-12T22:24:09;13.00;;;2.90;;
28724;SDS011;43472;48.980;9.646;2023-03-12T22:29:11;13.90;;;3.05;;
28724;SDS011;43472;48.980;9.646;2023-03-12T22:34:13;9.95;;;2.30;;
28724;SDS011;43472;48.980;9.646;2023-03-12T22:39:15;10.80;;;2.65;;
28724;SDS011;43472;48.980;9.646;2023-03-12T22:44:17;9.82;;;2.95;;
28724;SDS011;43472;48.980;9.646;2023-03-12T22:49:19;11.30;;;2.65;;
28724;SDS011;43472;48.980;9.646;2023-03-12T22:54:21;12.18;;;2.35;;
28724;SDS011;43472;48.980;9.646;2023-03-12T22:59:23;18.88;;;2.88;;
28724;SDS011;43472;48.980;9.646;2023-03-12T23:04:25;7.78;;;2.38;;
28724;SDS011;43472;48.980;9.646;2023-03-12T23:09:27;18.15;;;2.70;;
28724;SDS011;43472;48.980;9.646;2023-03-12T23:14:29;18.17;;;2.70;;
28724;SDS011;43472;48.980;9.646;2023-03-12T23:19:33;7.43;;;2.00;;
28724;SDS011;43472;48.980;9.646;2023-03-12T23:24:35;12.93;;;2.22;;
28724;SDS011;43472;48.980;9.646;2023-03-12T23:29:37;11.88;;;2.40;;
28724;SDS011;43472;48.980;9.646;2023-03-12T23:34:39;17.98;;;2.67;;
28724;SDS011;43472;48.980;9.646;2023-03-12T23:39:42;10.02;;;2.17;;
28724;SDS011;43472;48.980;9.646;2023-03-12T23:44:54;12.10;;;2.00;;
28724;SDS011;43472;48.980;9.646;2023-03-12T23:49:56;13.07;;;2.53;;
28724;SDS011;43472;48.980;9.646;2023-03-12T23:54:58;21.23;;;3.10;;
